sensor_id;sensor_type;location;lat;lon;timestamp;pressure;altitude;pressure_sealevel;temperature;humidity
56070;BME280;41944;52.078;-0.058;2022-11-20T00:02:09;100898.49;;;7.35;100.00
56070;BME280;41944;52.078;-0.058;2022-11-20T00:04:36;100893.75;;;7.32;100.00
56070;BME280;41944;52.078;-0.058;2022-11-20T00:07:03;100890.67;;;7.45;100.00
56070;BME280;41944;52.078;-0.058;2022-11-20T00:09:30;100888.76;;;7.34;100.00
56070;BME280;41944;52.078;-0.058;2022-11-20T00:11:57;100888.98;;;7.18;100.00
56070;BME280;41944;52.078;-0.058;2022-11-20T00:14:25;100889.45;;;7.17;100.00
56070;BME280;41944;52.078;-0.058;2022-11-20T00:16:52;100894.77;;;7.31;100.00
56070;BME280;41944;52.078;-0.058;2022-11-20T00:19:20;100893.11;;;7.22;100.00
56070;BME280;41944;52.078;-0.058;2022-11-20T00:21:47;100886.55;;;7.26;100.00
56070;BME280;41944;52.078;-0.058;2022-11-20T00:24:14;100887.13;;;7.15;100.00
56070;BME280;41944;52.078;-0.058;2022-11-20T00:26:42;100887.25;;;7.20;100.00
56070;BME280;41944;52.078;-0.058;2022-11-20T00:29:09;100886.35;;;7.42;100.00
56070;BME280;41944;52.078;-0.058;2022-11-20T00:31:37;100884.43;;;7.47;100.00
56070;BME280;41944;52.078;-0.058;2022-11-20T00:34:04;100881.02;;;7.57;100.00
56070;BME280;41944;52.078;-0.058;2022-11-20T00:36:33;100873.36;;;7.57;100.00
56070;BME280;41944;52.078;-0.058;2022-11-20T00:39:01;100872.93;;;7.65;100.00
56070;BME280;41944;52.078;-0.058;2022-11-20T00:41:30;100867.80;;;7.78;100.00
56070;BME280;41944;52.078;-0.058;2022-11-20T00:43:57;100863.31;;;7.84;100.00
56070;BME280;41944;52.078;-0.058;2022-11-20T00:46:27;100860.68;;;7.87;100.00
56070;BME280;41944;52.078;-0.058;2022-11-20T00:48:55;100855.78;;;7.78;100.00
56070;BME280;41944;52.078;-0.058;2022-11-20T00:51:24;100854.32;;;7.78;100.00
56070;BME280;41944;52.078;-0.058;2022-11-20T00:53:52;100854.20;;;7.86;100.00
56070;BME280;41944;52.078;-0.058;2022-11-20T00:56:21;100854.54;;;8.02;100.00
56070;BME280;41944;52.078;-0.058;2022-11-20T00:58:49;100849.47;;;7.78;100.00
56070;BME280;41944;52.078;-0.058;2022-11-20T01:01:18;100849.93;;;7.74;100.00
56070;BME280;41944;52.078;-0.058;2022-11-20T01:03:47;100847.30;;;7.87;100.00
56070;BME280;41944;52.078;-0.058;2022-11-20T01:06:20;100842.14;;;7.63;100.00
56070;BME280;41944;52.078;-0.058;2022-11-20T01:08:48;100838.23;;;7.70;100.00
56070;BME280;41944;52.078;-0.058;2022-11-20T01:11:17;100830.53;;;7.56;100.00
56070;BME280;41944;52.078;-0.058;2022-11-20T01:13:45;100823.88;;;7.57;100.00
56070;BME280;41944;52.078;-0.058;2022-11-20T01:16:15;100819.98;;;7.43;100.00
56070;BME280;41944;52.078;-0.058;2022-11-20T01:18:44;100814.69;;;7.49;100.00
56070;BME280;41944;52.078;-0.058;2022-11-20T01:21:14;100811.70;;;7.44;100.00
56070;BME280;41944;52.078;-0.058;2022-11-20T01:23:42;100805.48;;;7.77;100.00
56070;BME280;41944;52.078;-0.058;2022-11-20T01:26:11;100802.67;;;7.63;100.00
56070;BME280;41944;52.078;-0.058;2022-11-20T01:28:39;100797.92;;;7.76;100.00
56070;BME280;41944;52.078;-0.058;2022-11-20T01:31:12;100797.37;;;7.75;100.00
56070;BME280;41944;52.078;-0.058;2022-11-20T01:33:41;100799.14;;;7.74;100.00
56070;BME280;41944;52.078;-0.058;2022-11-20T01:36:09;100793.82;;;7.83;100.00
56070;BME280;41944;52.078;-0.058;2022-11-20T01:38:37;100792.96;;;7.68;100.00
56070;BME280;41944;52.078;-0.058;2022-11-20T01:41:05;100791.19;;;7.53;100.00
56070;BME280;41944;52.078;-0.058;2022-11-20T01:43:33;100789.55;;;7.55;100.00
56070;BME280;41944;52.078;-0.058;2022-11-20T01:46:05;100788.15;;;7.53;100.00
56070;BME280;41944;52.078;-0.058;2022-11-20T01:48:37;100787.16;;;7.41;100.00
56070;BME280;41944;52.078;-0.058;2022-11-20T01:51:09;100781.00;;;7.34;100.00
56070;BME280;41944;52.078;-0.058;2022-11-20T01:53:38;100777.14;;;7.66;100.00
56070;BME280;41944;52.078;-0.058;2022-11-20T01:56:09;100779.00;;;7.60;100.00
56070;BME280;41944;52.078;-0.058;2022-11-20T01:58:41;100777.33;;;7.45;100.00
56070;BME280;41944;52.078;-0.058;2022-11-20T02:01:09;100776.06;;;7.53;100.00
56070;BME280;41944;52.078;-0.058;2022-11-20T02:03:37;100772.20;;;7.47;100.00
56070;BME280;41944;52.078;-0.058;2022-11-20T02:06:09;100763.92;;;7.56;100.00
56070;BME280;41944;52.078;-0.058;2022-11-20T02:08:38;100750.74;;;7.87;100.00
56070;BME280;41944;52.078;-0.058;2022-11-20T02:11:06;100746.49;;;7.90;100.00
56070;BME280;41944;52.078;-0.058;2022-11-20T02:13:34;100752.42;;;7.69;100.00
56070;BME280;41944;52.078;-0.058;2022-11-20T02:16:01;100747.84;;;7.60;100.00
56070;BME280;41944;52.078;-0.058;2022-11-20T02:18:30;100745.85;;;7.56;100.00
56070;BME280;41944;52.078;-0.058;2022-11-20T02:21:02;100733.50;;;7.63;100.00
56070;BME280;41944;52.078;-0.058;2022-11-20T02:23:38;100728.55;;;7.72;100.00
56070;BME280;41944;52.078;-0.058;2022-11-20T02:26:09;100725.71;;;8.01;98.42
56070;BME280;41944;52.078;-0.058;2022-11-20T02:28:38;100718.33;;;8.15;96.49
56070;BME280;41944;52.078;-0.058;2022-11-20T02:31:05;100709.00;;;8.12;95.63
56070;BME280;41944;52.078;-0.058;2022-11-20T02:33:32;100706.77;;;8.25;95.51
56070;BME280;41944;52.078;-0.058;2022-11-20T02:36:00;100701.56;;;8.07;95.31
56070;BME280;41944;52.078;-0.058;2022-11-20T02:38:28;100694.67;;;8.27;94.60
56070;BME280;41944;52.078;-0.058;2022-11-20T02:40:55;100689.25;;;8.18;95.74
56070;BME280;41944;52.078;-0.058;2022-11-20T02:43:23;100691.33;;;8.31;94.82
56070;BME280;41944;52.078;-0.058;2022-11-20T02:45:50;100688.55;;;8.28;94.84
56070;BME280;41944;52.078;-0.058;2022-11-20T02:48:17;100685.41;;;8.21;94.57
56070;BME280;41944;52.078;-0.058;2022-11-20T02:50:44;100678.53;;;8.12;95.10
56070;BME280;41944;52.078;-0.058;2022-11-20T02:53:12;100673.23;;;8.22;93.79
56070;BME280;41944;52.078;-0.058;2022-11-20T02:55:39;100668.56;;;8.41;93.37
56070;BME280;41944;52.078;-0.058;2022-11-20T02:58:06;100663.48;;;8.71;92.45
56070;BME280;41944;52.078;-0.058;2022-11-20T03:00:33;100660.66;;;8.71;92.53
56070;BME280;41944;52.078;-0.058;2022-11-20T03:03:01;100657.25;;;8.60;91.82
56070;BME280;41944;52.078;-0.058;2022-11-20T03:05:29;100654.46;;;8.80;91.66
56070;BME280;41944;52.078;-0.058;2022-11-20T03:07:57;100652.23;;;8.72;91.70
56070;BME280;41944;52.078;-0.058;2022-11-20T03:10:24;100646.82;;;8.77;92.04
56070;BME280;41944;52.078;-0.058;2022-11-20T03:12:53;100647.12;;;8.85;92.71
56070;BME280;41944;52.078;-0.058;2022-11-20T03:15:20;100645.05;;;8.88;91.77
56070;BME280;41944;52.078;-0.058;2022-11-20T03:17:47;100641.83;;;8.97;91.67
56070;BME280;41944;52.078;-0.058;2022-11-20T03:20:15;100635.53;;;8.96;92.26
56070;BME280;41944;52.078;-0.058;2022-11-20T03:22:42;100634.51;;;8.80;91.31
56070;BME280;41944;52.078;-0.058;2022-11-20T03:25:09;100635.09;;;8.82;91.03
56070;BME280;41944;52.078;-0.058;2022-11-20T03:27:36;100632.59;;;8.74;91.27
56070;BME280;41944;52.078;-0.058;2022-11-20T03:30:05;100632.45;;;8.74;91.22
56070;BME280;41944;52.078;-0.058;2022-11-20T03:32:32;100635.88;;;8.80;91.47
56070;BME280;41944;52.078;-0.058;2022-11-20T03:34:59;100631.55;;;8.81;91.03
56070;BME280;41944;52.078;-0.058;2022-11-20T03:37:27;100632.06;;;8.88;90.44
56070;BME280;41944;52.078;-0.058;2022-11-20T03:39:54;100627.63;;;8.98;91.51
56070;BME280;41944;52.078;-0.058;2022-11-20T03:42:22;100625.19;;;9.12;90.31
56070;BME280;41944;52.078;-0.058;2022-11-20T03:44:49;100622.94;;;8.99;90.01
56070;BME280;41944;52.078;-0.058;2022-11-20T03:47:17;100619.60;;;8.86;89.45
56070;BME280;41944;52.078;-0.058;2022-11-20T03:49:44;100612.91;;;8.88;90.61
56070;BME280;41944;52.078;-0.058;2022-11-20T03:52:11;100602.14;;;9.07;91.07
56070;BME280;41944;52.078;-0.058;2022-11-20T03:54:37;100599.62;;;9.11;90.67
56070;BME280;41944;52.078;-0.058;2022-11-20T03:57:04;100590.58;;;9.21;89.56
56070;BME280;41944;52.078;-0.058;2022-11-20T03:59:31;100587.83;;;9.23;89.77
56070;BME280;41944;52.078;-0.058;2022-11-20T04:01:59;100584.41;;;9.22;89.49
56070;BME280;41944;52.078;-0.058;2022-11-20T04:04:26;100586.17;;;9.14;90.09
56070;BME280;41944;52.078;-0.058;2022-11-20T04:06:54;100584.79;;;9.25;89.36
56070;BME280;41944;52.078;-0.058;2022-11-20T04:09:21;100581.85;;;9.25;89.23
56070;BME280;41944;52.078;-0.058;2022-11-20T04:11:48;100577.79;;;9.30;88.95
56070;BME280;41944;52.078;-0.058;2022-11-20T04:14:16;100576.23;;;9.22;88.90
56070;BME280;41944;52.078;-0.058;2022-11-20T04:16:44;100577.17;;;9.15;89.33
56070;BME280;41944;52.078;-0.058;2022-11-20T04:19:13;100577.27;;;9.16;89.66
56070;BME280;41944;52.078;-0.058;2022-11-20T04:21:42;100570.01;;;9.28;88.67
56070;BME280;41944;52.078;-0.058;2022-11-20T04:24:10;100567.92;;;9.14;87.96
56070;BME280;41944;52.078;-0.058;2022-11-20T04:26:38;100566.55;;;9.07;88.97
56070;BME280;41944;52.078;-0.058;2022-11-20T04:29:05;100565.36;;;9.09;88.48
56070;BME280;41944;52.078;-0.058;2022-11-20T04:31:34;100555.19;;;9.05;88.55
56070;BME280;41944;52.078;-0.058;2022-11-20T04:34:02;100548.39;;;8.88;89.51
56070;BME280;41944;52.078;-0.058;2022-11-20T04:36:31;100545.81;;;8.80;90.26
56070;BME280;41944;52.078;-0.058;2022-11-20T04:39:01;100540.90;;;8.68;90.79
56070;BME280;41944;52.078;-0.058;2022-11-20T04:41:31;100537.78;;;8.84;89.97
56070;BME280;41944;52.078;-0.058;2022-11-20T04:44:00;100533.01;;;8.89;90.88
56070;BME280;41944;52.078;-0.058;2022-11-20T04:46:28;100527.41;;;9.03;90.95
56070;BME280;41944;52.078;-0.058;2022-11-20T04:48:56;100526.05;;;9.23;89.74
56070;BME280;41944;52.078;-0.058;2022-11-20T04:51:24;100524.63;;;9.11;88.94
56070;BME280;41944;52.078;-0.058;2022-11-20T04:53:52;100520.13;;;9.15;88.94
56070;BME280;41944;52.078;-0.058;2022-11-20T04:56:19;100514.86;;;8.92;89.87
56070;BME280;41944;52.078;-0.058;2022-11-20T04:58:45;100504.75;;;8.78;90.50
56070;BME280;41944;52.078;-0.058;2022-11-20T05:01:15;100501.28;;;8.71;89.62
56070;BME280;41944;52.078;-0.058;2022-11-20T05:03:43;100495.99;;;8.39;91.64
56070;BME280;41944;52.078;-0.058;2022-11-20T05:06:13;100487.07;;;8.30;92.58
56070;BME280;41944;52.078;-0.058;2022-11-20T05:08:41;100484.73;;;8.47;92.50
56070;BME280;41944;52.078;-0.058;2022-11-20T05:11:10;100484.85;;;8.38;92.73
56070;BME280;41944;52.078;-0.058;2022-11-20T05:13:38;100484.91;;;8.29;92.62
56070;BME280;41944;52.078;-0.058;2022-11-20T05:16:08;100477.14;;;8.41;92.94
56070;BME280;41944;52.078;-0.058;2022-11-20T05:18:36;100474.10;;;8.34;94.12
56070;BME280;41944;52.078;-0.058;2022-11-20T05:21:05;100475.91;;;8.69;93.34
56070;BME280;41944;52.078;-0.058;2022-11-20T05:23:33;100475.28;;;8.93;91.20
56070;BME280;41944;52.078;-0.058;2022-11-20T05:26:01;100466.86;;;8.97;91.36
56070;BME280;41944;52.078;-0.058;2022-11-20T05:28:29;100457.04;;;8.78;91.37
56070;BME280;41944;52.078;-0.058;2022-11-20T05:31:04;100453.32;;;9.05;90.27
56070;BME280;41944;52.078;-0.058;2022-11-20T05:33:32;100445.36;;;9.11;91.02
56070;BME280;41944;52.078;-0.058;2022-11-20T05:36:00;100437.81;;;9.14;90.86
56070;BME280;41944;52.078;-0.058;2022-11-20T05:38:27;100429.56;;;9.32;91.00
56070;BME280;41944;52.078;-0.058;2022-11-20T05:40:54;100424.75;;;9.36;91.25
56070;BME280;41944;52.078;-0.058;2022-11-20T05:43:22;100425.45;;;9.32;90.73
56070;BME280;41944;52.078;-0.058;2022-11-20T05:45:53;100426.72;;;9.27;91.52
56070;BME280;41944;52.078;-0.058;2022-11-20T05:48:21;100422.05;;;9.22;92.11
56070;BME280;41944;52.078;-0.058;2022-11-20T05:50:48;100425.44;;;9.16;92.44
56070;BME280;41944;52.078;-0.058;2022-11-20T05:53:16;100424.21;;;9.22;92.31
56070;BME280;41944;52.078;-0.058;2022-11-20T05:55:43;100418.54;;;9.24;93.51
56070;BME280;41944;52.078;-0.058;2022-11-20T05:58:10;100413.70;;;9.31;93.46
56070;BME280;41944;52.078;-0.058;2022-11-20T06:00:38;100413.89;;;9.40;92.25
56070;BME280;41944;52.078;-0.058;2022-11-20T06:03:05;100410.43;;;9.31;92.53
56070;BME280;41944;52.078;-0.058;2022-11-20T06:05:34;100406.92;;;9.26;92.52
56070;BME280;41944;52.078;-0.058;2022-11-20T06:08:01;100412.78;;;9.19;94.03
56070;BME280;41944;52.078;-0.058;2022-11-20T06:10:28;100412.68;;;9.28;94.21
56070;BME280;41944;52.078;-0.058;2022-11-20T06:12:57;100406.97;;;9.38;93.60
56070;BME280;41944;52.078;-0.058;2022-11-20T06:15:25;100406.69;;;9.33;93.76
56070;BME280;41944;52.078;-0.058;2022-11-20T06:17:53;100404.51;;;9.46;93.76
56070;BME280;41944;52.078;-0.058;2022-11-20T06:20:21;100400.65;;;9.48;94.01
56070;BME280;41944;52.078;-0.058;2022-11-20T06:22:48;100400.36;;;9.49;93.89
56070;BME280;41944;52.078;-0.058;2022-11-20T06:25:15;100392.86;;;9.52;94.14
56070;BME280;41944;52.078;-0.058;2022-11-20T06:27:43;100387.29;;;9.61;93.75
56070;BME280;41944;52.078;-0.058;2022-11-20T06:30:11;100383.89;;;9.64;93.67
56070;BME280;41944;52.078;-0.058;2022-11-20T06:32:38;100392.51;;;9.76;93.13
56070;BME280;41944;52.078;-0.058;2022-11-20T06:35:06;100393.75;;;9.75;93.09
56070;BME280;41944;52.078;-0.058;2022-11-20T06:37:33;100399.05;;;9.56;93.33
56070;BME280;41944;52.078;-0.058;2022-11-20T06:40:00;100402.52;;;9.56;94.41
56070;BME280;41944;52.078;-0.058;2022-11-20T06:42:27;100402.11;;;9.50;94.78
56070;BME280;41944;52.078;-0.058;2022-11-20T06:44:54;100398.45;;;9.41;95.61
56070;BME280;41944;52.078;-0.058;2022-11-20T06:47:21;100393.12;;;9.45;95.61
56070;BME280;41944;52.078;-0.058;2022-11-20T06:49:48;100384.07;;;9.60;95.39
56070;BME280;41944;52.078;-0.058;2022-11-20T06:52:15;100385.45;;;9.74;94.59
56070;BME280;41944;52.078;-0.058;2022-11-20T06:54:42;100384.11;;;9.68;94.49
56070;BME280;41944;52.078;-0.058;2022-11-20T06:57:09;100387.48;;;9.55;94.64
56070;BME280;41944;52.078;-0.058;2022-11-20T06:59:36;100378.31;;;9.66;94.49
56070;BME280;41944;52.078;-0.058;2022-11-20T07:02:03;100363.09;;;9.66;94.37
56070;BME280;41944;52.078;-0.058;2022-11-20T07:04:30;100363.50;;;9.68;94.79
56070;BME280;41944;52.078;-0.058;2022-11-20T07:06:57;100358.81;;;9.66;94.35
56070;BME280;41944;52.078;-0.058;2022-11-20T07:09:24;100365.39;;;9.51;95.13
56070;BME280;41944;52.078;-0.058;2022-11-20T07:11:51;100363.91;;;9.58;94.78
56070;BME280;41944;52.078;-0.058;2022-11-20T07:14:19;100363.52;;;9.65;94.54
56070;BME280;41944;52.078;-0.058;2022-11-20T07:16:46;100355.77;;;9.55;95.32
56070;BME280;41944;52.078;-0.058;2022-11-20T07:19:13;100356.22;;;9.67;95.19
56070;BME280;41944;52.078;-0.058;2022-11-20T07:21:40;100351.97;;;9.69;95.13
56070;BME280;41944;52.078;-0.058;2022-11-20T07:24:07;100352.04;;;9.79;94.95
56070;BME280;41944;52.078;-0.058;2022-11-20T07:26:34;100355.44;;;9.76;95.00
56070;BME280;41944;52.078;-0.058;2022-11-20T07:29:01;100355.37;;;9.66;95.67
56070;BME280;41944;52.078;-0.058;2022-11-20T07:31:29;100361.44;;;9.88;94.81
56070;BME280;41944;52.078;-0.058;2022-11-20T07:33:56;100367.34;;;9.81;94.58
56070;BME280;41944;52.078;-0.058;2022-11-20T07:36:23;100366.80;;;9.69;94.88
56070;BME280;41944;52.078;-0.058;2022-11-20T07:38:50;100360.49;;;9.71;95.57
56070;BME280;41944;52.078;-0.058;2022-11-20T07:41:17;100360.26;;;9.83;95.32
56070;BME280;41944;52.078;-0.058;2022-11-20T07:43:44;100358.72;;;9.77;95.72
56070;BME280;41944;52.078;-0.058;2022-11-20T07:46:11;100359.80;;;9.70;96.19
56070;BME280;41944;52.078;-0.058;2022-11-20T07:48:38;100365.79;;;9.81;95.85
56070;BME280;41944;52.078;-0.058;2022-11-20T07:51:05;100366.26;;;9.82;95.83
56070;BME280;41944;52.078;-0.058;2022-11-20T07:53:33;100373.03;;;9.71;96.33
56070;BME280;41944;52.078;-0.058;2022-11-20T07:56:00;100372.55;;;9.60;97.08
56070;BME280;41944;52.078;-0.058;2022-11-20T07:58:29;100374.39;;;9.66;96.88
56070;BME280;41944;52.078;-0.058;2022-11-20T08:00:56;100373.78;;;9.58;97.33
56070;BME280;41944;52.078;-0.058;2022-11-20T08:03:23;100379.20;;;9.73;97.01
56070;BME280;41944;52.078;-0.058;2022-11-20T08:05:50;100370.60;;;9.55;98.29
56070;BME280;41944;52.078;-0.058;2022-11-20T08:08:18;100377.05;;;9.61;97.96
56070;BME280;41944;52.078;-0.058;2022-11-20T08:10:45;100377.96;;;9.68;97.79
56070;BME280;41944;52.078;-0.058;2022-11-20T08:13:12;100382.41;;;9.75;97.42
56070;BME280;41944;52.078;-0.058;2022-11-20T08:15:40;100389.43;;;9.84;97.61
56070;BME280;41944;52.078;-0.058;2022-11-20T08:18:09;100391.98;;;9.65;98.31
56070;BME280;41944;52.078;-0.058;2022-11-20T08:20:37;100392.24;;;9.73;97.92
56070;BME280;41944;52.078;-0.058;2022-11-20T08:23:06;100396.43;;;9.71;98.47
56070;BME280;41944;52.078;-0.058;2022-11-20T08:25:34;100402.27;;;9.72;98.36
56070;BME280;41944;52.078;-0.058;2022-11-20T08:28:04;100400.59;;;9.74;98.49
56070;BME280;41944;52.078;-0.058;2022-11-20T08:30:32;100409.59;;;9.71;98.71
56070;BME280;41944;52.078;-0.058;2022-11-20T08:33:02;100405.40;;;9.63;99.11
56070;BME280;41944;52.078;-0.058;2022-11-20T08:35:33;100402.44;;;9.68;99.47
56070;BME280;41944;52.078;-0.058;2022-11-20T08:38:01;100409.43;;;9.71;99.27
56070;BME280;41944;52.078;-0.058;2022-11-20T08:40:28;100405.47;;;9.79;99.00
56070;BME280;41944;52.078;-0.058;2022-11-20T08:42:56;100410.39;;;9.69;99.77
56070;BME280;41944;52.078;-0.058;2022-11-20T08:45:24;100402.78;;;9.88;98.75
56070;BME280;41944;52.078;-0.058;2022-11-20T08:47:51;100402.31;;;9.90;98.71
56070;BME280;41944;52.078;-0.058;2022-11-20T08:50:18;100399.60;;;9.95;99.18
56070;BME280;41944;52.078;-0.058;2022-11-20T08:52:45;100399.84;;;10.16;97.63
56070;BME280;41944;52.078;-0.058;2022-11-20T08:55:12;100405.74;;;10.22;96.57
56070;BME280;41944;52.078;-0.058;2022-11-20T08:57:40;100398.06;;;10.27;95.83
56070;BME280;41944;52.078;-0.058;2022-11-20T09:00:08;100397.29;;;10.35;95.41
56070;BME280;41944;52.078;-0.058;2022-11-20T09:02:36;100398.58;;;10.39;95.61
56070;BME280;41944;52.078;-0.058;2022-11-20T09:05:04;100399.29;;;10.24;96.25
56070;BME280;41944;52.078;-0.058;2022-11-20T09:07:31;100391.04;;;10.14;97.33
56070;BME280;41944;52.078;-0.058;2022-11-20T09:09:58;100385.62;;;10.13;97.74
56070;BME280;41944;52.078;-0.058;2022-11-20T09:12:26;100387.74;;;10.31;96.21
56070;BME280;41944;52.078;-0.058;2022-11-20T09:14:53;100389.83;;;10.33;95.10
56070;BME280;41944;52.078;-0.058;2022-11-20T09:17:21;100387.54;;;10.46;94.78
56070;BME280;41944;52.078;-0.058;2022-11-20T09:19:48;100387.56;;;10.42;94.73
56070;BME280;41944;52.078;-0.058;2022-11-20T09:22:15;100383.16;;;10.47;94.29
56070;BME280;41944;52.078;-0.058;2022-11-20T09:24:42;100382.45;;;10.68;92.64
56070;BME280;41944;52.078;-0.058;2022-11-20T09:27:10;100380.01;;;10.56;92.53
56070;BME280;41944;52.078;-0.058;2022-11-20T09:29:38;100380.17;;;10.37;93.39
56070;BME280;41944;52.078;-0.058;2022-11-20T09:32:07;100389.59;;;10.19;94.59
56070;BME280;41944;52.078;-0.058;2022-11-20T09:34:34;100388.89;;;10.31;93.95
56070;BME280;41944;52.078;-0.058;2022-11-20T09:37:02;100393.76;;;10.26;94.19
56070;BME280;41944;52.078;-0.058;2022-11-20T09:39:30;100393.87;;;10.22;94.01
56070;BME280;41944;52.078;-0.058;2022-11-20T09:42:10;100398.90;;;10.20;94.24
56070;BME280;41944;52.078;-0.058;2022-11-20T09:44:54;100392.92;;;10.35;93.29
56070;BME280;41944;52.078;-0.058;2022-11-20T09:47:32;100391.29;;;10.45;93.05
56070;BME280;41944;52.078;-0.058;2022-11-20T09:50:17;100396.30;;;10.69;92.35
56070;BME280;41944;52.078;-0.058;2022-11-20T09:52:57;100394.11;;;10.91;89.17
56070;BME280;41944;52.078;-0.058;2022-11-20T09:55:29;100391.56;;;11.02;88.46
56070;BME280;41944;52.078;-0.058;2022-11-20T09:57:58;100391.78;;;11.10;89.29
56070;BME280;41944;52.078;-0.058;2022-11-20T10:00:28;100397.71;;;11.22;88.37
56070;BME280;41944;52.078;-0.058;2022-11-20T10:03:01;100390.86;;;11.35;87.17
56070;BME280;41944;52.078;-0.058;2022-11-20T10:05:35;100388.46;;;11.43;86.83
56070;BME280;41944;52.078;-0.058;2022-11-20T10:08:14;100386.64;;;11.35;87.14
56070;BME280;41944;52.078;-0.058;2022-11-20T10:10:46;100386.91;;;11.58;85.52
56070;BME280;41944;52.078;-0.058;2022-11-20T10:13:24;100387.77;;;11.54;85.50
56070;BME280;41944;52.078;-0.058;2022-11-20T10:16:06;100386.74;;;11.76;83.73
56070;BME280;41944;52.078;-0.058;2022-11-20T10:18:47;100394.91;;;11.67;84.09
56070;BME280;41944;52.078;-0.058;2022-11-20T10:21:25;100391.82;;;11.78;83.67
56070;BME280;41944;52.078;-0.058;2022-11-20T10:24:19;100388.86;;;11.86;82.90
56070;BME280;41944;52.078;-0.058;2022-11-20T10:26:58;100375.86;;;11.83;83.61
56070;BME280;41944;52.078;-0.058;2022-11-20T10:29:33;100376.40;;;11.78;83.23
56070;BME280;41944;52.078;-0.058;2022-11-20T10:32:04;100375.62;;;11.88;84.06
56070;BME280;41944;52.078;-0.058;2022-11-20T10:34:46;100368.61;;;12.17;82.82
56070;BME280;41944;52.078;-0.058;2022-11-20T10:37:18;100366.26;;;12.41;80.79
56070;BME280;41944;52.078;-0.058;2022-11-20T10:39:51;100359.19;;;12.28;82.71
56070;BME280;41944;52.078;-0.058;2022-11-20T10:42:26;100360.93;;;12.49;81.71
56070;BME280;41944;52.078;-0.058;2022-11-20T10:45:09;100360.35;;;12.60;80.15
56070;BME280;41944;52.078;-0.058;2022-11-20T10:47:40;100357.68;;;12.51;79.92
56070;BME280;41944;52.078;-0.058;2022-11-20T10:50:13;100357.44;;;12.48;79.56
56070;BME280;41944;52.078;-0.058;2022-11-20T10:52:51;100356.65;;;12.46;80.62
56070;BME280;41944;52.078;-0.058;2022-11-20T10:55:30;100361.19;;;12.39;82.75
56070;BME280;41944;52.078;-0.058;2022-11-20T10:58:04;100365.16;;;12.55;80.75
56070;BME280;41944;52.078;-0.058;2022-11-20T11:00:34;100362.81;;;12.72;80.53
56070;BME280;41944;52.078;-0.058;2022-11-20T11:03:02;100365.36;;;12.82;79.34
56070;BME280;41944;52.078;-0.058;2022-11-20T11:05:36;100366.33;;;12.71;79.74
56070;BME280;41944;52.078;-0.058;2022-11-20T11:08:10;100369.71;;;12.78;78.74
56070;BME280;41944;52.078;-0.058;2022-11-20T11:10:43;100369.52;;;12.67;80.49
56070;BME280;41944;52.078;-0.058;2022-11-20T11:13:20;100368.72;;;12.61;78.98
56070;BME280;41944;52.078;-0.058;2022-11-20T11:15:48;100366.88;;;12.75;77.65
56070;BME280;41944;52.078;-0.058;2022-11-20T11:18:24;100365.11;;;12.73;77.73
56070;BME280;41944;52.078;-0.058;2022-11-20T11:20:52;100359.77;;;12.50;78.52
56070;BME280;41944;52.078;-0.058;2022-11-20T11:23:31;100361.76;;;12.57;78.08
56070;BME280;41944;52.078;-0.058;2022-11-20T11:26:00;100358.53;;;12.53;79.55
56070;BME280;41944;52.078;-0.058;2022-11-20T11:28:29;100359.75;;;12.56;79.53
56070;BME280;41944;52.078;-0.058;2022-11-20T11:30:56;100363.84;;;12.47;78.71
56070;BME280;41944;52.078;-0.058;2022-11-20T11:33:24;100363.88;;;12.60;77.98
56070;BME280;41944;52.078;-0.058;2022-11-20T11:35:53;100364.42;;;12.56;77.97
56070;BME280;41944;52.078;-0.058;2022-11-20T11:38:26;100368.60;;;12.57;79.12
56070;BME280;41944;52.078;-0.058;2022-11-20T11:40:56;100368.78;;;12.66;79.67
56070;BME280;41944;52.078;-0.058;2022-11-20T11:43:25;100368.78;;;12.91;77.42
56070;BME280;41944;52.078;-0.058;2022-11-20T11:45:55;100366.47;;;12.88;76.64
56070;BME280;41944;52.078;-0.058;2022-11-20T11:48:22;100364.82;;;12.65;77.63
56070;BME280;41944;52.078;-0.058;2022-11-20T11:50:50;100365.09;;;12.61;78.76
56070;BME280;41944;52.078;-0.058;2022-11-20T11:53:18;100362.28;;;12.61;78.99
56070;BME280;41944;52.078;-0.058;2022-11-20T11:55:51;100356.31;;;12.52;79.43
56070;BME280;41944;52.078;-0.058;2022-11-20T11:58:34;100356.63;;;12.53;78.93
56070;BME280;41944;52.078;-0.058;2022-11-20T12:01:17;100352.76;;;12.45;79.91
56070;BME280;41944;52.078;-0.058;2022-11-20T12:03:55;100350.22;;;12.53;78.80
56070;BME280;41944;52.078;-0.058;2022-11-20T12:06:23;100349.63;;;12.59;78.94
56070;BME280;41944;52.078;-0.058;2022-11-20T12:08:55;100351.22;;;12.76;78.01
56070;BME280;41944;52.078;-0.058;2022-11-20T12:11:32;100351.16;;;12.86;77.08
56070;BME280;41944;52.078;-0.058;2022-11-20T12:14:04;100354.75;;;12.79;76.63
56070;BME280;41944;52.078;-0.058;2022-11-20T12:16:38;100357.96;;;12.97;76.69
56070;BME280;41944;52.078;-0.058;2022-11-20T12:19:09;100348.95;;;13.02;75.63
56070;BME280;41944;52.078;-0.058;2022-11-20T12:21:48;100347.52;;;13.07;75.44
56070;BME280;41944;52.078;-0.058;2022-11-20T12:24:57;100360.57;;;13.00;74.86
56070;BME280;41944;52.078;-0.058;2022-11-20T12:27:41;100355.86;;;13.03;74.46
56070;BME280;41944;52.078;-0.058;2022-11-20T12:30:13;100364.54;;;12.93;72.97
56070;BME280;41944;52.078;-0.058;2022-11-20T12:32:54;100362.66;;;12.86;73.33
56070;BME280;41944;52.078;-0.058;2022-11-20T12:35:38;100365.70;;;12.70;73.78
56070;BME280;41944;52.078;-0.058;2022-11-20T12:38:28;100361.16;;;12.73;73.85
56070;BME280;41944;52.078;-0.058;2022-11-20T12:41:05;100362.56;;;12.70;73.14
56070;BME280;41944;52.078;-0.058;2022-11-20T12:43:43;100364.20;;;12.62;73.31
56070;BME280;41944;52.078;-0.058;2022-11-20T12:46:20;100356.78;;;12.76;73.21
56070;BME280;41944;52.078;-0.058;2022-11-20T12:49:16;100352.08;;;12.79;72.81
56070;BME280;41944;52.078;-0.058;2022-11-20T12:52:01;100353.80;;;12.80;71.89
56070;BME280;41944;52.078;-0.058;2022-11-20T12:54:44;100352.49;;;12.70;71.99
56070;BME280;41944;52.078;-0.058;2022-11-20T12:57:19;100355.01;;;12.75;72.95
56070;BME280;41944;52.078;-0.058;2022-11-20T13:00:06;100361.60;;;12.80;72.47